Weather observations for the past three days for
ROLLA
Imperial (Metric)
Date Time (cdt) Wind (mph) Vis. (mi.) Weather Sky Cond. Temperature (ºF) Relative Humidity Wind Chill (°F) Heat Index (°F) Pressure Precipitation (in)
Air Dwpt 6 hour altimeter (in) sea level (mb) 1 hr 3 hr 6 hr
Max. Min.
03 14:35 W 21 G 30 10.00 Fair and Breezy CLR 69.8 1.4 6% 29.57 0.0
03 13:55 W 22 G 36 10.00 Fair and Breezy CLR 69.8 1.4 6% 29.6 0.0
03 13:35 W 29 G 45 10.00 Fair and Windy CLR 69.8 1.4 6% 29.61 0.0
03 13:15 W 26 G 32 10.00 Fair and Windy CLR 69.8 5 8% 29.63 0.0
03 12:55 SW 22 G 31 10.00 Fair and Breezy CLR 68 12.2 11% 29.65 0.0
03 12:35 SW 20 G 29 10.00 Fair CLR 66.2 14 13% 29.67 0.0
03 12:15 W 17 10.00 Fair CLR 66.2 14 13% 29.69 0.0
03 11:55 W 20 10.00 Fair CLR 64.4 14 14% 29.72 0.0
03 11:35 SW 21 10.00 Fair and Breezy CLR 62.6 15.8 16% 29.74 0.0
03 11:15 SW 21 G 28 10.00 Fair and Breezy CLR 60.8 15.8 17% 29.75 0.0
03 10:55 SW 20 G 26 10.00 Fair CLR 59 17.6 20% 29.76 0.0
03 10:35 SW 22 10.00 Fair and Breezy CLR 59 17.6 20% 29.76 0.0
03 10:15 W 20 G 28 10.00 Fair CLR 57.2 17.6 21% 29.77 0.0
03 09:55 SW 17 G 24 10.00 Fair CLR 57.2 17.6 21% 29.78 0.0
03 09:35 SW 17 10.00 Fair CLR 57.2 15.8 20% 29.8 0.0
03 09:15 W 13 10.00 Fair CLR 57.2 17.6 21% 29.81 0.0
03 08:55 W 9 10.00 Fair CLR 55.4 17.6 23% 29.82 0.0
03 08:35 W 13 10.00 Fair CLR 53.6 19.4 26% 29.82 0.0
03 08:15 W 10 10.00 Fair CLR 51.8 21.2 30% 29.82 0.0
03 07:55 W 9 10.00 Fair CLR 48.2 23 37% 45 29.83 0.0
03 07:35 W 9 10.00 Light Unknown Precip CLR 46.4 23 40% 42 29.83 0.0
03 07:15 W 9 10.00 Light Unknown Precip CLR 42.8 24.8 49% 38 29.84 0.0
03 06:55 SW 5 10.00 Fair CLR 35.6 24.8 65% 32 29.84 0.0
03 06:35 SW 6 10.00 Fair CLR 33.8 23 65% 29 29.85 0.0
03 06:15 SW 7 10.00 Light Unknown Precip CLR 33.8 23 65% 28 29.85 0.0
03 05:55 SW 7 10.00 Light Unknown Precip CLR 33.8 23 65% 28 29.85 0.0
03 05:35 W 6 10.00 Fair CLR 33.8 23 65% 29 29.86 0.0
03 05:15 SW 7 10.00 Fair CLR 32 23 69% 26 29.86 0.0
03 04:55 SW 7 10.00 Fair CLR 33.8 23 65% 28 29.86 0.0
03 04:35 SW 6 10.00 Fair CLR 33.8 23 65% 29 29.86 0.0
03 04:15 W 3 10.00 Light Unknown Precip CLR 35.6 21.2 56% 29.86 0.0
03 03:55 NW 7 10.00 Unknown Precip CLR 37.4 21.2 52% 33 29.86 0.0
03 03:35 W 8 10.00 Light Unknown Precip CLR 37.4 21.2 52% 32 29.86 0.0
03 03:15 W 7 10.00 Fair CLR 33.8 21.2 60% 28 29.86 0.0
03 02:55 NW 5 10.00 Fair CLR 33.8 21.2 60% 30 29.86 0.0
03 02:35 NW 8 10.00 Fair CLR 39.2 19.4 45% 34 29.86 0.0
03 02:15 NW 7 10.00 Fair CLR 37.4 21.2 52% 33 29.86 0.0
03 01:55 NW 9 10.00 Fair CLR 41 19.4 42% 36 29.86 0.0
03 01:35 NW 10 10.00 Fair CLR 41 19.4 42% 35 29.87 0.0
03 01:15 NW 9 10.00 Fair CLR 42.8 19.4 39% 38 29.87 0.0
03 00:55 NW 10 10.00 Fair CLR 42.8 19.4 39% 38 29.87 0.0
03 00:35 NW 10 10.00 Fair CLR 44.6 19.4 37% 40 29.87 0.0
03 00:15 NW 9 10.00 Fair CLR 44.6 19.4 37% 40 29.88 0.0
02 23:55 NW 14 10.00 Fair CLR 46.4 19.4 34% 41 29.88 0.0
02 23:35 NW 14 10.00 Fair CLR 48.2 19.4 32% 43 29.88 0.0
02 23:15 N 12 10.00 Fair CLR 48.2 21.2 34% 44 29.88 0.0
02 22:55 NW 16 10.00 Partly Cloudy SCT055 50 23 35% 45 29.88 0.0
02 22:35 NW 9 10.00 Mostly Cloudy BKN060 48.2 28.4 46% 45 29.87 0.0
02 22:15 NW 10 10.00 Mostly Cloudy BKN065 48.2 28.4 46% 44 29.87 0.0
02 21:55 NW 10 10.00 Mostly Cloudy BKN065 46.4 28.4 50% 42 29.86 0.0
02 21:35 NW 7 10.00 A Few Clouds FEW065 46.4 26.6 46% 43 29.85 0.0
02 21:15 NW 6 10.00 Fair CLR 50 28.4 43% 48 29.84 0.0
02 20:55 N 6 10.00 Fair CLR 51.8 28.4 41% 29.83 0.0
02 20:35 N 8 10.00 Fair CLR 55.4 26.6 33% 29.83 0.0
02 20:15 N 13 10.00 Fair CLR 57.2 24.8 29% 29.82 0.0
02 19:55 N 14 G 20 10.00 A Few Clouds FEW070 59 24.8 27% 29.82 0.0
02 19:35 N 18 10.00 Mostly Cloudy BKN065 BKN075 60.8 23 23% 29.82 0.0
02 19:15 N 16 G 25 10.00 Mostly Cloudy BKN070 62.6 23 22% 29.81 0.0
02 18:55 N 14 G 23 10.00 A Few Clouds FEW075 60.8 23 23% 29.81 0.0
02 18:35 N 20 G 26 10.00 Fair CLR 64.4 21.2 19% 29.8 0.0
02 18:15 N 17 G 28 10.00 A Few Clouds FEW085 64.4 19.4 18% 29.79 0.0
02 17:55 N 23 10.00 A Few Clouds and Breezy FEW090 66.2 17.6 15% 29.79 0.0
02 17:35 N 21 G 28 10.00 A Few Clouds and Breezy FEW075 FEW085 66.2 17.6 15% 29.78 0.0
02 17:15 N 22 G 29 10.00 Mostly Cloudy and Breezy SCT075 BKN085 66.2 19.4 17% 29.78 0.0
02 16:55 N 18 G 26 10.00 A Few Clouds FEW080 66.2 17.6 15% 29.77 0.0
02 16:35 N 23 10.00 Fair and Breezy CLR 64.4 19.4 18% 29.76 0.0
02 16:15 N 21 G 31 10.00 Fair and Breezy CLR 68 17.6 14% 29.76 0.0
02 15:55 NE 22 G 33 10.00 Fair and Breezy CLR 68 15.8 13% 29.75 0.0
02 15:35 N 22 G 29 10.00 Fair and Breezy CLR 68 15.8 13% 29.75 0.0
02 15:15 NW 18 G 26 10.00 Fair CLR 68 14 12% 29.74 0.0
02 14:55 N 18 G 26 10.00 Fair CLR 68 19.4 16% 29.75 0.0
02 14:35 NW 22 10.00 Fair and Breezy CLR 68 21.2 17% 29.74 0.0
02 14:15 NW 18 G 30 10.00 Fair CLR 68 19.4 16% 29.75 0.0
02 13:55 NW 15 G 25 10.00 Fair CLR 68 17.6 14% 29.74 0.0
02 13:35 N 22 G 30 10.00 Fair and Breezy CLR 68 19.4 16% 29.74 0.0
02 13:15 NW 14 G 23 10.00 Fair CLR 68 14 12% 29.74 0.0
02 12:55 NW 20 G 26 10.00 Fair CLR 68 14 12% 29.74 0.0
02 12:35 W 17 10.00 Fair CLR 68 14 12% 29.74 0.0
02 12:15 W 15 G 21 10.00 Fair CLR 66.2 14 13% 29.75 0.0
02 11:55 W 13 G 21 10.00 Fair CLR 64.4 15.8 15% 29.76 0.0
02 11:35 W 14 G 22 10.00 A Few Clouds FEW090 62.6 17.6 17% 29.76 0.0
02 11:15 W 15 G 24 10.00 Partly Cloudy SCT095 60.8 17.6 19% 29.77 0.0
02 10:55 W 16 G 24 10.00 Mostly Cloudy BKN095 BKN120 57.2 17.6 21% 29.77 0.0
02 10:35 W 21 G 29 10.00 Partly Cloudy and Breezy SCT110 55.4 19.4 24% 29.77 0.0
02 10:15 SW 15 G 21 10.00 Mostly Cloudy BKN100 53.6 17.6 24% 29.78 0.0
02 09:55 SW 18 10.00 Mostly Cloudy BKN090 BKN110 51.8 19.4 28% 29.79 0.0
02 09:35 SW 14 10.00 Mostly Cloudy BKN090 BKN110 51.8 19.4 28% 29.79 0.0
02 09:15 SW 15 10.00 Mostly Cloudy BKN095 BKN120 50 19.4 30% 45 29.8 0.0
02 08:55 SW 16 G 22 10.00 Partly Cloudy FEW075 SCT090 48.2 19.4 32% 43 29.8 0.0
02 08:35 SW 16 G 23 10.00 Partly Cloudy SCT100 48.2 19.4 32% 43 29.81 0.0
02 08:15 SW 16 10.00 Mostly Cloudy BKN100 46.4 21.2 37% 40 29.81 0.0
02 07:55 SW 16 10.00 A Few Clouds FEW110 46.4 19.4 34% 40 29.81 0.0
02 07:35 SW 16 10.00 A Few Clouds FEW095 46.4 19.4 34% 40 29.83 0.0
02 07:15 SW 15 10.00 A Few Clouds FEW095 FEW120 46.4 17.6 32% 41 29.84 0.0
02 06:55 SW 14 10.00 Mostly Cloudy BKN120 46.4 17.6 32% 41 29.84 0.0
02 06:35 SW 15 10.00 Mostly Cloudy BKN120 48.2 15.8 27% 43 29.86 0.0
02 06:15 SW 15 10.00 Fair CLR 46.4 15.8 29% 41 29.86 0.0
02 05:55 SW 16 10.00 Fair CLR 48.2 15.8 27% 43 29.86 0.0
02 05:35 SW 16 G 23 10.00 A Few Clouds FEW120 48.2 14 25% 43 29.87 0.0
02 05:15 W 20 10.00 A Few Clouds FEW120 50 14 24% 44 29.87 0.0
02 04:55 SW 18 10.00 Fair CLR 50 14 24% 44 29.88 0.0
02 04:35 W 20 10.00 Fair CLR 50 14 24% 44 29.89 0.0
02 04:15 W 18 10.00 Fair CLR 50 14 24% 44 29.9 0.0
02 03:55 W 16 10.00 Fair CLR 48.2 15.8 27% 43 29.9 0.0
02 03:35 W 16 10.00 Fair CLR 46.4 19.4 34% 40 29.9 0.0
02 03:15 W 12 10.00 Fair CLR 41 24.8 53% 35 29.91 0.0
02 02:55 SW 13 10.00 Fair CLR 39.2 26.6 61% 32 29.91 0.0
02 02:35 SW 12 10.00 Fair CLR 39.2 28.4 65% 33 29.92 0.0
02 02:15 SW 8 10.00 Fair CLR 37.4 28.4 70% 32 29.92 0.0
02 01:55 S 8 10.00 Fair CLR 37.4 28.4 70% 32 29.93 0.0
02 01:35 S 9 10.00 Fair CLR 37.4 28.4 70% 31 29.94 0.0
02 01:15 S 10 10.00 Fair CLR 37.4 26.6 65% 31 29.95 0.0
02 00:55 S 6 10.00 Fair CLR 39.2 26.6 61% 36 29.96 0.0
02 00:35 S 8 10.00 Fair CLR 41 26.6 57% 36 29.96 0.0
02 00:15 S 9 10.00 Fair CLR 41 26.6 57% 36 29.96 0.0
01 23:55 S 7 G 14 10.00 Fair CLR 42.8 24.8 49% 39 29.97 0.0
01 23:35 S 10 10.00 Fair CLR 44.6 23 43% 40 29.97 0.0
01 23:15 S 12 10.00 Fair CLR 46.4 21.2 37% 42 29.98 0.0
01 22:55 S 14 10.00 Fair CLR 46.4 23 40% 41 29.98 0.0
01 22:35 S 12 G 18 10.00 Fair CLR 46.4 23 40% 42 29.98 0.0
01 22:15 S 12 G 17 10.00 Fair CLR 48.2 24.8 40% 44 29.98 0.0
01 21:55 S 15 10.00 Fair CLR 48.2 24.8 40% 43 29.98 0.0
01 21:35 SE 15 G 21 10.00 Fair CLR 48.2 23 37% 43 29.98 0.0
01 21:15 SE 15 10.00 Fair CLR 50 23 35% 45 29.98 0.0
01 20:55 SE 14 10.00 Fair CLR 51.8 23 32% 29.98 0.0
01 20:35 SE 13 10.00 Fair CLR 53.6 19.4 26% 29.98 0.0
01 20:15 SE 10 10.00 A Few Clouds FEW095 55.4 19.4 24% 29.98 0.0
01 19:55 SE 8 10.00 A Few Clouds FEW095 59 17.6 20% 29.98 0.0
01 19:35 S 9 10.00 Partly Cloudy SCT095 59 15.8 18% 29.98 0.0
01 19:15 S 10 10.00 Partly Cloudy SCT090 60.8 14 16% 29.99 0.0
01 18:55 S 8 10.00 Partly Cloudy SCT090 59 14 17% 29.99 0.0
01 18:35 S 10 10.00 A Few Clouds FEW090 59 12.2 16% 30 0.0
01 18:15 Calm 10.00 Fair CLR 60.8 12.2 15% 30 0.0
01 17:55 Calm 10.00 Fair CLR 59 10.4 14% 30.01 0.0
01 17:35 S 8 10.00 A Few Clouds FEW085 59 12.2 16% 30.02 0.0
01 17:15 Vrbl 6 10.00 A Few Clouds FEW080 60.8 8.6 12% 30.02 0.0
01 16:55 SE 6 5.00 Mostly Cloudy with Haze SCT080 BKN090 59 12.2 16% 30.03 0.0
01 16:35 W 5 10.00 Overcast SCT080 OVC090 59 12.2 16% 30.04 0.0
01 16:15 Vrbl 3 10.00 Mostly Cloudy FEW070 BKN090 59 10.4 14% 30.04 0.0
01 15:55 W 8 10.00 Mostly Cloudy BKN090 60.8 12.2 15% 30.05 0.0
01 15:35 Vrbl 3 10.00 Partly Cloudy SCT090 59 15.8 18% 30.06 0.0
01 15:15 Calm 10.00 Partly Cloudy FEW065 SCT085 57.2 14 18% 30.06 0.0
01 14:55 Vrbl 5 10.00 Partly Cloudy FEW065 SCT090 57.2 15.8 20% 30.06 0.0
01 14:35 Calm 10.00 Fair CLR 55.4 14 19% 30.07 0.0
01 14:15 NE 3 10.00 Fair CLR 55.4 15.8 21% 30.07 0.0
01 13:55 NE 7 10.00 Fair CLR 53.6 15.8 22% 30.08 0.0
01 13:35 Vrbl 3 10.00 Fair CLR 53.6 15.8 22% 30.08 0.0
01 12:55 Vrbl 3 10.00 Fair CLR 51.8 15.8 24% 30.1 0.0
01 12:35 Calm 10.00 Fair CLR 50 15.8 26% 30.1 0.0
01 12:15 Vrbl 5 10.00 A Few Clouds FEW075 50 15.8 26% 49 30.11 0.0
01 11:55 Vrbl 7 10.00 Mostly Cloudy BKN075 48.2 15.8 27% 46 30.11 0.0
01 11:35 Vrbl 5 10.00 Overcast OVC080 46.4 14 27% 45 30.11 0.0
01 11:15 SE 5 10.00 Overcast OVC080 44.6 14 29% 43 30.11 0.0
01 10:55 SW 6 10.00 Overcast OVC080 44.6 15.8 31% 42 30.11 0.0
01 10:35 S 6 10.00 Overcast OVC080 42.8 17.6 36% 40 30.11 0.0
01 10:15 S 6 10.00 Overcast OVC080 41 17.6 39% 38 30.11 0.0
01 09:55 S 7 10.00 Mostly Cloudy BKN080 41 19.4 42% 37 30.11 0.0
01 09:35 S 9 10.00 A Few Clouds FEW080 41 21.2 45% 36 30.12 0.0
01 09:15 S 9 10.00 Mostly Cloudy BKN080 37.4 19.4 48% 31 30.12 0.0
01 08:55 S 9 10.00 Overcast OVC080 37.4 21.2 52% 31 30.12 0.0
01 08:35 SW 8 10.00 Overcast OVC080 35.6 23 60% 30 30.12 0.0
01 08:15 SW 8 10.00 Mostly Cloudy BKN080 35.6 23 60% 30 30.12 0.0
01 07:55 S 6 10.00 Mostly Cloudy SCT075 BKN085 33.8 23 65% 29 30.12 0.0
01 07:35 SW 6 10.00 Mostly Cloudy BKN075 32 23 69% 27 30.12 0.0
01 07:15 SW 5 10.00 Partly Cloudy SCT080 30.2 23 75% 26 30.12 0.0
01 06:55 S 6 10.00 Mostly Cloudy BKN080 28.4 21.2 74% 23 30.11 0.0
01 06:35 S 5 10.00 Partly Cloudy FEW065 SCT085 28.4 19.4 69% 24 30.11 0.0
01 06:15 S 6 10.00 Mostly Cloudy BKN065 28.4 19.4 69% 23 30.11 0.0
01 05:55 SW 5 10.00 Mostly Cloudy BKN065 26.6 21.2 80% 22 30.11 0.0
01 05:35 SW 6 10.00 Overcast BKN060 OVC070 26.6 19.4 74% 21 30.11 0.0
01 05:15 SW 6 10.00 Overcast BKN060 OVC070 28.4 19.4 69% 23 30.11 0.0
01 04:55 SW 7 10.00 Mostly Cloudy SCT065 BKN075 BKN110 28.4 19.4 69% 22 30.11 0.0
01 04:35 SW 6 10.00 A Few Clouds FEW090 28.4 19.4 69% 23 30.11 0.0
01 04:15 SW 7 10.00 Mostly Cloudy BKN090 28.4 19.4 69% 22 30.1 0.0
01 03:55 SW 8 10.00 Mostly Cloudy BKN090 28.4 19.4 69% 21 30.1 0.0
01 03:35 SW 8 10.00 Overcast SCT070 OVC090 30.2 19.4 64% 23 30.1 0.0
01 03:15 SW 9 10.00 Overcast BKN070 OVC090 30.2 19.4 64% 23 30.1 0.0
01 02:55 SW 8 10.00 Overcast OVC070 28.4 21.2 74% 21 30.1 0.0
01 02:35 SW 7 10.00 Overcast OVC075 28.4 19.4 69% 22 30.1 0.0
01 02:15 SW 7 10.00 Overcast OVC080 28.4 19.4 69% 22 30.11 0.0
01 01:55 SW 6 10.00 Overcast BKN080 OVC090 28.4 19.4 69% 23 30.11 0.0
01 01:35 SW 7 10.00 Partly Cloudy SCT085 26.6 17.6 69% 20 30.11 0.0
01 01:15 SW 6 10.00 Fair CLR 26.6 17.6 69% 21 30.11 0.0
01 00:55 SW 6 10.00 Fair CLR 26.6 17.6 69% 21 30.11 0.0
01 00:35 SW 6 10.00 Fair CLR 28.4 17.6 64% 23 30.1 0.0
01 00:15 SW 5 10.00 Fair CLR 26.6 17.6 69% 22 30.1 0.0
30 23:55 SW 5 10.00 Fair CLR 26.6 17.6 69% 22 30.1 0.0
30 23:35 SW 6 10.00 Fair CLR 28.4 17.6 64% 23 30.1 0.0
30 23:15 S 5 10.00 Fair CLR 30.2 17.6 59% 26 30.1 0.0
30 22:55 SE 6 10.00 Fair CLR 30.2 15.8 55% 25 30.1 0.0
30 22:35 SE 6 10.00 Fair CLR 30.2 15.8 55% 25 30.1 0.0
30 22:15 SE 7 10.00 Fair CLR 32 15.8 51% 26 30.1 0.0
30 21:55 SE 7 10.00 Fair CLR 32 17.6 55% 26 30.1 0.0
30 21:35 E 7 10.00 Fair CLR 33.8 15.8 48% 28 30.1 0.0
30 21:15 E 7 10.00 Fair CLR 35.6 15.8 44% 31 30.1 0.0
30 20:55 E 6 10.00 Fair CLR 37.4 14 38% 33 30.1 0.0
30 20:35 E 6 10.00 Fair CLR 39.2 14 36% 36 30.1 0.0
30 20:15 NE 6 10.00 Fair CLR 41 14 33% 38 30.1 0.0
30 19:55 NE 8 10.00 Fair CLR 42.8 10.4 26% 39 30.09 0.0
30 19:35 NE 8 10.00 Fair CLR 42.8 10.4 26% 39 30.1 0.0
30 19:15 NE 10 10.00 Fair CLR 42.8 10.4 26% 38 30.1 0.0
30 18:55 NE 12 10.00 Fair CLR 44.6 10.4 25% 39 30.1 0.0
30 18:35 NE 12 G 17 10.00 Fair CLR 44.6 10.4 25% 39 30.1 0.0
30 18:15 N 10 G 17 10.00 A Few Clouds FEW055 44.6 8.6 23% 40 30.11 0.0
30 17:55 N 12 G 20 10.00 Partly Cloudy SCT055 44.6 10.4 25% 39 30.11 0.0
30 17:35 N 14 10.00 A Few Clouds FEW050 44.6 10.4 25% 39 30.11 0.0
30 17:15 N 13 G 18 10.00 Partly Cloudy SCT050 44.6 10.4 25% 39 30.11 0.0
30 16:55 N 12 G 18 10.00 A Few Clouds FEW050 42.8 8.6 24% 37 30.11 0.0
30 16:35 N 13 G 18 10.00 A Few Clouds FEW049 42.8 10.4 26% 37 30.12 0.0
30 16:15 N 16 10.00 A Few Clouds FEW048 42.8 10.4 26% 36 30.12 0.0
30 15:55 NE 9 G 17 10.00 Partly Cloudy SCT047 42.8 10.4 26% 38 30.12 0.0
30 15:35 NE 15 10.00 Partly Cloudy SCT046 42.8 10.4 26% 36 30.12 0.0
30 15:15 N 12 G 18 10.00 Partly Cloudy SCT045 41 12.2 31% 35 30.13 0.0
30 14:55 NW 12 G 18 10.00 Partly Cloudy SCT043 41 10.4 28% 35 30.13 0.0
Date Time (cdt) Wind (mph) Vis. (mi.) Weather Sky Cond. Air Dwpt Max. Min. Relative Humidity Wind Chill (°F) Heat Index (°F) altimeter (in) sea level (mb) 1 hr 3 hr 6 hr
6 hour
Temperature (ºF) Pressure Precipitation (in)